sensor_id;sensor_type;location;lat;lon;timestamp;temperature;humidity
9116;DHT22;4593;53.652;10.168;2023-06-22T00:00:57;17.70;82.80
9116;DHT22;4593;53.652;10.168;2023-06-22T00:03:24;17.70;83.10
9116;DHT22;4593;53.652;10.168;2023-06-22T00:05:51;17.60;83.20
9116;DHT22;4593;53.652;10.168;2023-06-22T00:08:17;17.60;83.40
9116;DHT22;4593;53.652;10.168;2023-06-22T00:10:44;17.50;83.60
9116;DHT22;4593;53.652;10.168;2023-06-22T00:13:10;17.50;83.70
9116;DHT22;4593;53.652;10.168;2023-06-22T00:15:37;17.40;84.10
9116;DHT22;4593;53.652;10.168;2023-06-22T00:18:04;17.40;84.00
9116;DHT22;4593;53.652;10.168;2023-06-22T00:20:30;17.40;84.00
9116;DHT22;4593;53.652;10.168;2023-06-22T00:22:56;17.40;84.10
9116;DHT22;4593;53.652;10.168;2023-06-22T00:25:23;17.40;84.10
9116;DHT22;4593;53.652;10.168;2023-06-22T00:27:49;17.30;84.30
9116;DHT22;4593;53.652;10.168;2023-06-22T00:30:18;17.30;84.60
9116;DHT22;4593;53.652;10.168;2023-06-22T00:32:44;17.30;84.90
9116;DHT22;4593;53.652;10.168;2023-06-22T00:35:13;17.30;85.00
9116;DHT22;4593;53.652;10.168;2023-06-22T00:37:39;17.30;85.30
9116;DHT22;4593;53.652;10.168;2023-06-22T00:40:11;17.30;85.30
9116;DHT22;4593;53.652;10.168;2023-06-22T00:42:40;17.30;85.20
9116;DHT22;4593;53.652;10.168;2023-06-22T00:45:07;17.30;85.30
9116;DHT22;4593;53.652;10.168;2023-06-22T00:47:37;17.30;85.50
9116;DHT22;4593;53.652;10.168;2023-06-22T00:50:06;17.40;85.40
9116;DHT22;4593;53.652;10.168;2023-06-22T00:52:33;17.40;85.60
9116;DHT22;4593;53.652;10.168;2023-06-22T00:55:02;17.50;85.70
9116;DHT22;4593;53.652;10.168;2023-06-22T00:57:28;17.50;85.60
9116;DHT22;4593;53.652;10.168;2023-06-22T00:59:54;17.50;85.20
9116;DHT22;4593;53.652;10.168;2023-06-22T01:02:20;17.50;85.20
9116;DHT22;4593;53.652;10.168;2023-06-22T01:04:46;17.50;85.10
9116;DHT22;4593;53.652;10.168;2023-06-22T01:07:23;17.50;85.30
9116;DHT22;4593;53.652;10.168;2023-06-22T01:12:42;17.50;85.50
9116;DHT22;4593;53.652;10.168;2023-06-22T01:15:30;17.50;85.50
9116;DHT22;4593;53.652;10.168;2023-06-22T01:17:57;17.50;85.20
9116;DHT22;4593;53.652;10.168;2023-06-22T01:20:25;17.50;85.50
9116;DHT22;4593;53.652;10.168;2023-06-22T01:25:33;17.50;85.70
9116;DHT22;4593;53.652;10.168;2023-06-22T01:30:46;17.50;85.70
9116;DHT22;4593;53.652;10.168;2023-06-22T01:33:13;17.50;85.40
9116;DHT22;4593;53.652;10.168;2023-06-22T01:35:40;17.50;85.00
9116;DHT22;4593;53.652;10.168;2023-06-22T01:38:07;17.40;84.80
9116;DHT22;4593;53.652;10.168;2023-06-22T01:40:34;17.30;85.10
9116;DHT22;4593;53.652;10.168;2023-06-22T01:43:01;17.30;85.30
9116;DHT22;4593;53.652;10.168;2023-06-22T01:45:27;17.20;85.70
9116;DHT22;4593;53.652;10.168;2023-06-22T01:47:54;17.20;86.00
9116;DHT22;4593;53.652;10.168;2023-06-22T01:50:21;17.20;86.20
9116;DHT22;4593;53.652;10.168;2023-06-22T01:52:46;17.20;86.50
9116;DHT22;4593;53.652;10.168;2023-06-22T01:55:12;17.20;86.90
9116;DHT22;4593;53.652;10.168;2023-06-22T01:57:38;17.20;86.80
9116;DHT22;4593;53.652;10.168;2023-06-22T02:00:09;17.20;86.70
9116;DHT22;4593;53.652;10.168;2023-06-22T02:02:46;17.10;86.50
9116;DHT22;4593;53.652;10.168;2023-06-22T02:05:16;17.10;86.40
9116;DHT22;4593;53.652;10.168;2023-06-22T02:07:47;17.10;86.50
9116;DHT22;4593;53.652;10.168;2023-06-22T02:10:16;17.10;86.50
9116;DHT22;4593;53.652;10.168;2023-06-22T02:12:44;17.10;86.60
9116;DHT22;4593;53.652;10.168;2023-06-22T02:15:11;17.00;86.60
9116;DHT22;4593;53.652;10.168;2023-06-22T02:17:38;17.00;86.50
9116;DHT22;4593;53.652;10.168;2023-06-22T02:20:04;17.00;86.70
9116;DHT22;4593;53.652;10.168;2023-06-22T02:22:33;17.00;86.60
9116;DHT22;4593;53.652;10.168;2023-06-22T02:24:58;16.90;86.80
9116;DHT22;4593;53.652;10.168;2023-06-22T02:27:24;16.90;86.90
9116;DHT22;4593;53.652;10.168;2023-06-22T02:29:50;16.90;87.10
9116;DHT22;4593;53.652;10.168;2023-06-22T02:32:15;16.90;87.10
9116;DHT22;4593;53.652;10.168;2023-06-22T02:34:43;16.90;87.40
9116;DHT22;4593;53.652;10.168;2023-06-22T02:37:15;16.90;87.40
9116;DHT22;4593;53.652;10.168;2023-06-22T02:39:41;16.80;87.40
9116;DHT22;4593;53.652;10.168;2023-06-22T02:42:07;16.80;87.30
9116;DHT22;4593;53.652;10.168;2023-06-22T02:44:32;16.80;87.00
9116;DHT22;4593;53.652;10.168;2023-06-22T02:46:58;16.80;87.20
9116;DHT22;4593;53.652;10.168;2023-06-22T02:49:24;16.70;87.50
9116;DHT22;4593;53.652;10.168;2023-06-22T02:51:50;16.70;87.70
9116;DHT22;4593;53.652;10.168;2023-06-22T02:54:15;16.60;87.90
9116;DHT22;4593;53.652;10.168;2023-06-22T02:56:42;16.60;88.20
9116;DHT22;4593;53.652;10.168;2023-06-22T02:59:10;16.60;88.20
9116;DHT22;4593;53.652;10.168;2023-06-22T03:01:37;16.60;88.20
9116;DHT22;4593;53.652;10.168;2023-06-22T03:04:08;16.60;88.10
9116;DHT22;4593;53.652;10.168;2023-06-22T03:06:35;16.60;88.10
9116;DHT22;4593;53.652;10.168;2023-06-22T03:09:04;16.60;88.10
9116;DHT22;4593;53.652;10.168;2023-06-22T03:11:34;16.50;88.10
9116;DHT22;4593;53.652;10.168;2023-06-22T03:14:00;16.50;88.20
9116;DHT22;4593;53.652;10.168;2023-06-22T03:16:26;16.50;88.30
9116;DHT22;4593;53.652;10.168;2023-06-22T03:18:52;16.50;88.20
9116;DHT22;4593;53.652;10.168;2023-06-22T03:21:22;16.50;88.20
9116;DHT22;4593;53.652;10.168;2023-06-22T03:23:48;16.50;88.20
9116;DHT22;4593;53.652;10.168;2023-06-22T03:26:17;16.50;88.30
9116;DHT22;4593;53.652;10.168;2023-06-22T03:28:43;16.50;88.00
9116;DHT22;4593;53.652;10.168;2023-06-22T03:31:08;16.50;88.20
9116;DHT22;4593;53.652;10.168;2023-06-22T03:33:34;16.50;88.20
9116;DHT22;4593;53.652;10.168;2023-06-22T03:35:59;16.60;88.10
9116;DHT22;4593;53.652;10.168;2023-06-22T03:38:25;16.60;87.80
9116;DHT22;4593;53.652;10.168;2023-06-22T03:40:51;16.60;87.70
9116;DHT22;4593;53.652;10.168;2023-06-22T03:43:16;16.60;87.90
9116;DHT22;4593;53.652;10.168;2023-06-22T03:45:42;16.70;88.00
9116;DHT22;4593;53.652;10.168;2023-06-22T03:48:11;16.70;88.00
9116;DHT22;4593;53.652;10.168;2023-06-22T03:50:36;16.80;87.80
9116;DHT22;4593;53.652;10.168;2023-06-22T03:53:02;16.90;87.60
9116;DHT22;4593;53.652;10.168;2023-06-22T03:55:27;17.00;87.20
9116;DHT22;4593;53.652;10.168;2023-06-22T03:57:54;17.10;87.10
9116;DHT22;4593;53.652;10.168;2023-06-22T04:00:25;17.30;87.00
9116;DHT22;4593;53.652;10.168;2023-06-22T04:02:51;17.40;86.20
9116;DHT22;4593;53.652;10.168;2023-06-22T04:05:16;17.60;85.40
9116;DHT22;4593;53.652;10.168;2023-06-22T04:07:45;17.70;85.50
9116;DHT22;4593;53.652;10.168;2023-06-22T04:10:11;17.80;84.90
9116;DHT22;4593;53.652;10.168;2023-06-22T04:12:36;17.90;84.30
9116;DHT22;4593;53.652;10.168;2023-06-22T04:15:02;18.00;83.50
9116;DHT22;4593;53.652;10.168;2023-06-22T04:17:28;18.10;82.90
9116;DHT22;4593;53.652;10.168;2023-06-22T04:19:53;18.20;82.90
9116;DHT22;4593;53.652;10.168;2023-06-22T04:22:19;18.20;82.50
9116;DHT22;4593;53.652;10.168;2023-06-22T04:24:45;18.30;82.20
9116;DHT22;4593;53.652;10.168;2023-06-22T04:27:10;18.40;81.80
9116;DHT22;4593;53.652;10.168;2023-06-22T04:29:37;18.40;81.30
9116;DHT22;4593;53.652;10.168;2023-06-22T04:32:03;18.50;81.00
9116;DHT22;4593;53.652;10.168;2023-06-22T04:34:30;18.60;80.70
9116;DHT22;4593;53.652;10.168;2023-06-22T04:36:56;18.70;79.40
9116;DHT22;4593;53.652;10.168;2023-06-22T04:39:22;18.80;79.50
9116;DHT22;4593;53.652;10.168;2023-06-22T04:41:48;19.00;79.20
9116;DHT22;4593;53.652;10.168;2023-06-22T04:44:18;19.10;78.80
9116;DHT22;4593;53.652;10.168;2023-06-22T04:46:51;19.20;77.70
9116;DHT22;4593;53.652;10.168;2023-06-22T04:49:22;19.20;76.20
9116;DHT22;4593;53.652;10.168;2023-06-22T04:51:48;19.20;76.20
9116;DHT22;4593;53.652;10.168;2023-06-22T04:54:15;19.30;76.80
9116;DHT22;4593;53.652;10.168;2023-06-22T04:56:40;19.50;76.80
9116;DHT22;4593;53.652;10.168;2023-06-22T04:59:07;19.60;76.60
9116;DHT22;4593;53.652;10.168;2023-06-22T05:01:33;19.80;76.20
9116;DHT22;4593;53.652;10.168;2023-06-22T05:04:00;19.90;75.00
9116;DHT22;4593;53.652;10.168;2023-06-22T05:06:26;19.90;74.70
9116;DHT22;4593;53.652;10.168;2023-06-22T05:08:54;20.00;73.60
9116;DHT22;4593;53.652;10.168;2023-06-22T05:11:29;20.10;73.40
9116;DHT22;4593;53.652;10.168;2023-06-22T05:13:55;20.20;72.20
9116;DHT22;4593;53.652;10.168;2023-06-22T05:16:21;20.20;72.00
9116;DHT22;4593;53.652;10.168;2023-06-22T05:18:58;20.30;72.20
9116;DHT22;4593;53.652;10.168;2023-06-22T05:21:26;20.40;71.90
9116;DHT22;4593;53.652;10.168;2023-06-22T05:23:53;20.50;71.40
9116;DHT22;4593;53.652;10.168;2023-06-22T05:26:20;20.50;70.50
9116;DHT22;4593;53.652;10.168;2023-06-22T05:28:46;20.30;70.10
9116;DHT22;4593;53.652;10.168;2023-06-22T05:31:13;20.30;70.80
9116;DHT22;4593;53.652;10.168;2023-06-22T05:33:40;20.60;70.30
9116;DHT22;4593;53.652;10.168;2023-06-22T05:36:06;20.90;69.20
9116;DHT22;4593;53.652;10.168;2023-06-22T05:38:32;21.00;69.00
9116;DHT22;4593;53.652;10.168;2023-06-22T05:40:58;21.20;68.30
9116;DHT22;4593;53.652;10.168;2023-06-22T05:43:24;21.20;65.70
9116;DHT22;4593;53.652;10.168;2023-06-22T05:45:50;20.90;65.80
9116;DHT22;4593;53.652;10.168;2023-06-22T05:48:15;20.50;66.80
9116;DHT22;4593;53.652;10.168;2023-06-22T05:50:42;20.50;67.60
9116;DHT22;4593;53.652;10.168;2023-06-22T05:53:08;20.80;67.20
9116;DHT22;4593;53.652;10.168;2023-06-22T05:55:33;21.10;65.40
9116;DHT22;4593;53.652;10.168;2023-06-22T05:57:59;21.30;65.50
9116;DHT22;4593;53.652;10.168;2023-06-22T06:00:25;21.60;65.00
9116;DHT22;4593;53.652;10.168;2023-06-22T06:02:51;21.90;64.20
9116;DHT22;4593;53.652;10.168;2023-06-22T06:05:16;22.10;63.10
9116;DHT22;4593;53.652;10.168;2023-06-22T06:07:44;22.20;62.10
9116;DHT22;4593;53.652;10.168;2023-06-22T06:10:10;22.10;61.10
9116;DHT22;4593;53.652;10.168;2023-06-22T06:12:35;22.20;61.90
9116;DHT22;4593;53.652;10.168;2023-06-22T06:15:02;22.40;62.60
9116;DHT22;4593;53.652;10.168;2023-06-22T06:17:27;22.60;61.40
9116;DHT22;4593;53.652;10.168;2023-06-22T06:19:53;22.70;59.50
9116;DHT22;4593;53.652;10.168;2023-06-22T06:22:19;22.90;59.10
9116;DHT22;4593;53.652;10.168;2023-06-22T06:24:47;23.10;58.60
9116;DHT22;4593;53.652;10.168;2023-06-22T06:27:13;23.30;57.90
9116;DHT22;4593;53.652;10.168;2023-06-22T06:29:39;23.30;56.30
9116;DHT22;4593;53.652;10.168;2023-06-22T06:32:05;23.20;56.30
9116;DHT22;4593;53.652;10.168;2023-06-22T06:34:30;23.50;55.40
9116;DHT22;4593;53.652;10.168;2023-06-22T06:36:56;23.60;56.10
9116;DHT22;4593;53.652;10.168;2023-06-22T06:39:22;23.70;55.30
9116;DHT22;4593;53.652;10.168;2023-06-22T06:41:47;23.60;54.50
9116;DHT22;4593;53.652;10.168;2023-06-22T06:44:13;23.60;55.20
9116;DHT22;4593;53.652;10.168;2023-06-22T06:46:39;23.50;56.30
9116;DHT22;4593;53.652;10.168;2023-06-22T06:49:04;23.40;56.00
9116;DHT22;4593;53.652;10.168;2023-06-22T06:51:30;23.20;56.50
9116;DHT22;4593;53.652;10.168;2023-06-22T06:53:56;23.10;57.60
9116;DHT22;4593;53.652;10.168;2023-06-22T06:56:22;23.00;58.40
9116;DHT22;4593;53.652;10.168;2023-06-22T06:58:50;22.90;58.30
9116;DHT22;4593;53.652;10.168;2023-06-22T07:01:16;22.90;58.50
9116;DHT22;4593;53.652;10.168;2023-06-22T07:03:42;22.80;59.00
9116;DHT22;4593;53.652;10.168;2023-06-22T07:06:08;22.80;59.30
9116;DHT22;4593;53.652;10.168;2023-06-22T07:08:34;23.00;59.50
9116;DHT22;4593;53.652;10.168;2023-06-22T07:11:01;23.20;59.70
9116;DHT22;4593;53.652;10.168;2023-06-22T07:13:28;23.50;58.10
9116;DHT22;4593;53.652;10.168;2023-06-22T07:15:54;23.40;57.90
9116;DHT22;4593;53.652;10.168;2023-06-22T07:18:19;23.60;59.00
9116;DHT22;4593;53.652;10.168;2023-06-22T07:20:45;23.90;57.50
9116;DHT22;4593;53.652;10.168;2023-06-22T07:23:10;24.10;58.90
9116;DHT22;4593;53.652;10.168;2023-06-22T07:25:36;24.50;57.90
9116;DHT22;4593;53.652;10.168;2023-06-22T07:28:05;24.70;54.80
9116;DHT22;4593;53.652;10.168;2023-06-22T07:30:32;25.00;55.20
9116;DHT22;4593;53.652;10.168;2023-06-22T07:32:58;25.40;53.30
9116;DHT22;4593;53.652;10.168;2023-06-22T07:35:25;25.70;54.00
9116;DHT22;4593;53.652;10.168;2023-06-22T07:37:51;26.00;52.40
9116;DHT22;4593;53.652;10.168;2023-06-22T07:40:17;26.30;52.60
9116;DHT22;4593;53.652;10.168;2023-06-22T07:42:42;26.50;51.90
9116;DHT22;4593;53.652;10.168;2023-06-22T07:45:09;26.70;51.80
9116;DHT22;4593;53.652;10.168;2023-06-22T07:47:35;26.50;51.10
9116;DHT22;4593;53.652;10.168;2023-06-22T07:50:02;26.10;52.40
9116;DHT22;4593;53.652;10.168;2023-06-22T07:52:28;26.00;53.30
9116;DHT22;4593;53.652;10.168;2023-06-22T07:54:54;26.30;52.60
9116;DHT22;4593;53.652;10.168;2023-06-22T07:57:20;26.60;54.00
9116;DHT22;4593;53.652;10.168;2023-06-22T07:59:46;26.80;52.40
9116;DHT22;4593;53.652;10.168;2023-06-22T08:02:12;26.90;53.30
9116;DHT22;4593;53.652;10.168;2023-06-22T08:04:38;27.20;52.60
9116;DHT22;4593;53.652;10.168;2023-06-22T08:07:04;26.90;50.80
9116;DHT22;4593;53.652;10.168;2023-06-22T08:09:31;26.40;51.90
9116;DHT22;4593;53.652;10.168;2023-06-22T08:11:58;26.40;53.50
9116;DHT22;4593;53.652;10.168;2023-06-22T08:14:25;26.90;53.30
9116;DHT22;4593;53.652;10.168;2023-06-22T08:16:51;27.20;52.90
9116;DHT22;4593;53.652;10.168;2023-06-22T08:19:17;26.80;50.50
9116;DHT22;4593;53.652;10.168;2023-06-22T08:21:43;26.40;52.00
9116;DHT22;4593;53.652;10.168;2023-06-22T08:24:09;26.50;52.20
9116;DHT22;4593;53.652;10.168;2023-06-22T08:26:35;26.90;51.70
9116;DHT22;4593;53.652;10.168;2023-06-22T08:29:03;27.20;50.30
9116;DHT22;4593;53.652;10.168;2023-06-22T08:31:29;26.80;50.90
9116;DHT22;4593;53.652;10.168;2023-06-22T08:33:55;26.50;51.90
9116;DHT22;4593;53.652;10.168;2023-06-22T08:36:20;26.50;51.90
9116;DHT22;4593;53.652;10.168;2023-06-22T08:38:46;26.50;53.30
9116;DHT22;4593;53.652;10.168;2023-06-22T08:41:15;26.60;52.30
9116;DHT22;4593;53.652;10.168;2023-06-22T08:43:41;26.20;52.00
9116;DHT22;4593;53.652;10.168;2023-06-22T08:46:08;26.20;53.30
9116;DHT22;4593;53.652;10.168;2023-06-22T08:48:34;25.80;53.10
9116;DHT22;4593;53.652;10.168;2023-06-22T08:50:59;25.90;52.90
9116;DHT22;4593;53.652;10.168;2023-06-22T08:53:25;26.20;50.40
9116;DHT22;4593;53.652;10.168;2023-06-22T08:55:51;26.70;51.40
9116;DHT22;4593;53.652;10.168;2023-06-22T08:58:16;27.30;49.70
9116;DHT22;4593;53.652;10.168;2023-06-22T09:00:43;27.20;48.30
9116;DHT22;4593;53.652;10.168;2023-06-22T09:03:09;27.20;49.10
9116;DHT22;4593;53.652;10.168;2023-06-22T09:05:36;27.00;50.50
9116;DHT22;4593;53.652;10.168;2023-06-22T09:08:02;27.30;48.90
9116;DHT22;4593;53.652;10.168;2023-06-22T09:10:28;27.40;48.00
9116;DHT22;4593;53.652;10.168;2023-06-22T09:12:53;27.40;47.90
9116;DHT22;4593;53.652;10.168;2023-06-22T09:15:19;27.00;48.90
9116;DHT22;4593;53.652;10.168;2023-06-22T09:17:45;27.10;49.00
9116;DHT22;4593;53.652;10.168;2023-06-22T09:20:12;27.10;49.00
9116;DHT22;4593;53.652;10.168;2023-06-22T09:22:38;27.40;49.20
9116;DHT22;4593;53.652;10.168;2023-06-22T09:25:04;27.60;48.20
9116;DHT22;4593;53.652;10.168;2023-06-22T09:27:30;27.50;48.60
9116;DHT22;4593;53.652;10.168;2023-06-22T09:29:56;27.60;49.60
9116;DHT22;4593;53.652;10.168;2023-06-22T09:32:24;27.70;47.90
9116;DHT22;4593;53.652;10.168;2023-06-22T09:34:50;26.60;48.60
9116;DHT22;4593;53.652;10.168;2023-06-22T09:37:16;26.30;50.40
9116;DHT22;4593;53.652;10.168;2023-06-22T09:39:41;26.70;49.00
9116;DHT22;4593;53.652;10.168;2023-06-22T09:42:07;26.80;50.00
9116;DHT22;4593;53.652;10.168;2023-06-22T09:44:33;27.20;49.50
9116;DHT22;4593;53.652;10.168;2023-06-22T09:46:59;27.30;49.80
9116;DHT22;4593;53.652;10.168;2023-06-22T09:49:25;27.70;49.80
9116;DHT22;4593;53.652;10.168;2023-06-22T09:51:51;27.90;48.40
9116;DHT22;4593;53.652;10.168;2023-06-22T09:54:18;27.90;46.80
9116;DHT22;4593;53.652;10.168;2023-06-22T09:56:43;27.80;48.40
9116;DHT22;4593;53.652;10.168;2023-06-22T09:59:09;27.90;48.00
9116;DHT22;4593;53.652;10.168;2023-06-22T10:01:35;27.90;46.40
9116;DHT22;4593;53.652;10.168;2023-06-22T10:04:02;27.60;47.10
9116;DHT22;4593;53.652;10.168;2023-06-22T10:06:28;27.70;47.00
9116;DHT22;4593;53.652;10.168;2023-06-22T10:08:53;27.90;47.50
9116;DHT22;4593;53.652;10.168;2023-06-22T10:11:19;28.40;46.60
9116;DHT22;4593;53.652;10.168;2023-06-22T10:13:45;27.90;46.40
9116;DHT22;4593;53.652;10.168;2023-06-22T10:16:10;27.50;48.00
9116;DHT22;4593;53.652;10.168;2023-06-22T10:18:36;27.50;49.50
9116;DHT22;4593;53.652;10.168;2023-06-22T10:21:02;27.90;49.40
9116;DHT22;4593;53.652;10.168;2023-06-22T10:23:27;28.30;47.60
9116;DHT22;4593;53.652;10.168;2023-06-22T10:25:53;28.50;45.90
9116;DHT22;4593;53.652;10.168;2023-06-22T10:28:19;27.70;47.70
9116;DHT22;4593;53.652;10.168;2023-06-22T10:30:44;27.60;48.20
9116;DHT22;4593;53.652;10.168;2023-06-22T10:33:11;27.80;47.80
9116;DHT22;4593;53.652;10.168;2023-06-22T10:35:37;28.40;48.40
9116;DHT22;4593;53.652;10.168;2023-06-22T10:38:04;28.60;46.40
9116;DHT22;4593;53.652;10.168;2023-06-22T10:40:30;29.00;48.10
9116;DHT22;4593;53.652;10.168;2023-06-22T10:42:56;29.30;45.00
9116;DHT22;4593;53.652;10.168;2023-06-22T10:45:22;29.10;45.90
9116;DHT22;4593;53.652;10.168;2023-06-22T10:47:47;29.20;46.00
9116;DHT22;4593;53.652;10.168;2023-06-22T10:50:13;29.30;45.90
9116;DHT22;4593;53.652;10.168;2023-06-22T10:52:39;29.10;45.10
9116;DHT22;4593;53.652;10.168;2023-06-22T10:55:05;28.70;45.20
9116;DHT22;4593;53.652;10.168;2023-06-22T10:57:31;28.30;47.10
9116;DHT22;4593;53.652;10.168;2023-06-22T10:59:57;28.40;47.20
9116;DHT22;4593;53.652;10.168;2023-06-22T11:02:23;28.60;46.80
9116;DHT22;4593;53.652;10.168;2023-06-22T11:04:49;28.50;47.10
9116;DHT22;4593;53.652;10.168;2023-06-22T11:07:16;28.50;47.00
9116;DHT22;4593;53.652;10.168;2023-06-22T11:09:43;28.50;46.60
9116;DHT22;4593;53.652;10.168;2023-06-22T11:12:09;28.50;47.10
9116;DHT22;4593;53.652;10.168;2023-06-22T11:14:34;28.50;46.80
9116;DHT22;4593;53.652;10.168;2023-06-22T11:17:00;28.40;48.60
9116;DHT22;4593;53.652;10.168;2023-06-22T11:19:26;28.60;46.30
9116;DHT22;4593;53.652;10.168;2023-06-22T11:21:51;28.70;46.50
9116;DHT22;4593;53.652;10.168;2023-06-22T11:24:17;28.40;46.60
9116;DHT22;4593;53.652;10.168;2023-06-22T11:26:43;28.20;47.20
9116;DHT22;4593;53.652;10.168;2023-06-22T11:29:09;27.90;47.70
9116;DHT22;4593;53.652;10.168;2023-06-22T11:31:35;28.10;49.10
9116;DHT22;4593;53.652;10.168;2023-06-22T11:34:01;28.30;47.70
9116;DHT22;4593;53.652;10.168;2023-06-22T11:36:27;28.50;46.40
9116;DHT22;4593;53.652;10.168;2023-06-22T11:38:54;28.60;46.20
9116;DHT22;4593;53.652;10.168;2023-06-22T11:41:20;28.60;47.10
9116;DHT22;4593;53.652;10.168;2023-06-22T11:43:46;28.80;47.00
9116;DHT22;4593;53.652;10.168;2023-06-22T11:46:11;28.80;46.70
9116;DHT22;4593;53.652;10.168;2023-06-22T11:48:37;28.70;48.50
9116;DHT22;4593;53.652;10.168;2023-06-22T11:51:03;28.70;47.70
9116;DHT22;4593;53.652;10.168;2023-06-22T11:53:29;29.10;48.10
9116;DHT22;4593;53.652;10.168;2023-06-22T11:55:55;29.20;45.80
9116;DHT22;4593;53.652;10.168;2023-06-22T11:58:22;29.50;45.00
9116;DHT22;4593;53.652;10.168;2023-06-22T12:00:48;29.90;45.00
9116;DHT22;4593;53.652;10.168;2023-06-22T12:03:14;29.60;43.20
9116;DHT22;4593;53.652;10.168;2023-06-22T12:05:40;29.20;44.80
9116;DHT22;4593;53.652;10.168;2023-06-22T12:08:06;29.30;46.40
9116;DHT22;4593;53.652;10.168;2023-06-22T12:10:32;29.30;45.60
9116;DHT22;4593;53.652;10.168;2023-06-22T12:12:57;29.10;45.30
9116;DHT22;4593;53.652;10.168;2023-06-22T12:15:25;29.00;45.60
9116;DHT22;4593;53.652;10.168;2023-06-22T12:17:51;29.00;45.50
9116;DHT22;4593;53.652;10.168;2023-06-22T12:20:17;29.10;46.20
9116;DHT22;4593;53.652;10.168;2023-06-22T12:22:43;28.80;46.00
9116;DHT22;4593;53.652;10.168;2023-06-22T12:25:09;28.50;46.80
9116;DHT22;4593;53.652;10.168;2023-06-22T12:27:35;28.40;47.00
9116;DHT22;4593;53.652;10.168;2023-06-22T12:30:01;28.80;47.50
9116;DHT22;4593;53.652;10.168;2023-06-22T12:32:27;29.10;45.80
9116;DHT22;4593;53.652;10.168;2023-06-22T12:34:53;29.00;46.50
9116;DHT22;4593;53.652;10.168;2023-06-22T12:37:18;28.70;46.80
9116;DHT22;4593;53.652;10.168;2023-06-22T12:39:44;28.90;47.40
9116;DHT22;4593;53.652;10.168;2023-06-22T12:42:10;28.90;47.20
9116;DHT22;4593;53.652;10.168;2023-06-22T12:44:40;29.10;46.60
9116;DHT22;4593;53.652;10.168;2023-06-22T12:47:06;29.10;46.90
9116;DHT22;4593;53.652;10.168;2023-06-22T12:49:34;28.70;46.40
9116;DHT22;4593;53.652;10.168;2023-06-22T12:52:00;29.00;46.40
9116;DHT22;4593;53.652;10.168;2023-06-22T12:54:26;29.10;46.80
9116;DHT22;4593;53.652;10.168;2023-06-22T12:56:53;29.10;45.50
9116;DHT22;4593;53.652;10.168;2023-06-22T12:59:19;29.10;46.50
9116;DHT22;4593;53.652;10.168;2023-06-22T13:01:44;29.00;47.20
9116;DHT22;4593;53.652;10.168;2023-06-22T13:04:11;29.50;47.00
9116;DHT22;4593;53.652;10.168;2023-06-22T13:06:40;29.50;46.10
9116;DHT22;4593;53.652;10.168;2023-06-22T13:09:06;29.80;46.10
9116;DHT22;4593;53.652;10.168;2023-06-22T13:11:32;30.00;44.80
9116;DHT22;4593;53.652;10.168;2023-06-22T13:13:57;30.00;44.80
9116;DHT22;4593;53.652;10.168;2023-06-22T13:16:23;29.90;45.80
9116;DHT22;4593;53.652;10.168;2023-06-22T13:18:49;30.00;44.80
9116;DHT22;4593;53.652;10.168;2023-06-22T13:21:15;29.80;44.60
9116;DHT22;4593;53.652;10.168;2023-06-22T13:23:40;29.30;45.70
9116;DHT22;4593;53.652;10.168;2023-06-22T13:26:06;29.20;46.30
9116;DHT22;4593;53.652;10.168;2023-06-22T13:28:32;29.20;46.70
9116;DHT22;4593;53.652;10.168;2023-06-22T13:30:58;29.10;47.40
9116;DHT22;4593;53.652;10.168;2023-06-22T13:33:24;29.30;48.40
9116;DHT22;4593;53.652;10.168;2023-06-22T13:35:49;29.40;47.40
9116;DHT22;4593;53.652;10.168;2023-06-22T13:38:15;29.20;46.20
9116;DHT22;4593;53.652;10.168;2023-06-22T13:40:41;29.00;46.50
9116;DHT22;4593;53.652;10.168;2023-06-22T13:43:06;29.00;47.10
9116;DHT22;4593;53.652;10.168;2023-06-22T13:45:32;28.90;47.20
9116;DHT22;4593;53.652;10.168;2023-06-22T13:47:58;28.90;47.60
9116;DHT22;4593;53.652;10.168;2023-06-22T13:50:24;28.90;47.30
9116;DHT22;4593;53.652;10.168;2023-06-22T13:52:50;29.00;48.00
9116;DHT22;4593;53.652;10.168;2023-06-22T13:55:15;29.20;47.00
9116;DHT22;4593;53.652;10.168;2023-06-22T13:57:42;29.30;46.60
9116;DHT22;4593;53.652;10.168;2023-06-22T14:00:09;29.40;46.30
9116;DHT22;4593;53.652;10.168;2023-06-22T14:02:35;29.50;46.00
9116;DHT22;4593;53.652;10.168;2023-06-22T14:05:01;29.70;46.60
9116;DHT22;4593;53.652;10.168;2023-06-22T14:07:27;29.50;45.70
9116;DHT22;4593;53.652;10.168;2023-06-22T14:09:53;29.50;46.90
9116;DHT22;4593;53.652;10.168;2023-06-22T14:12:19;29.80;46.60
9116;DHT22;4593;53.652;10.168;2023-06-22T14:14:44;29.80;46.10
9116;DHT22;4593;53.652;10.168;2023-06-22T14:17:10;29.70;45.80
9116;DHT22;4593;53.652;10.168;2023-06-22T14:19:36;30.20;46.10
9116;DHT22;4593;53.652;10.168;2023-06-22T14:22:02;30.70;44.20
9116;DHT22;4593;53.652;10.168;2023-06-22T14:24:28;30.20;43.80
9116;DHT22;4593;53.652;10.168;2023-06-22T14:26:56;30.20;44.70
9116;DHT22;4593;53.652;10.168;2023-06-22T14:29:22;30.20;45.50
9116;DHT22;4593;53.652;10.168;2023-06-22T14:31:49;30.20;44.90
9116;DHT22;4593;53.652;10.168;2023-06-22T14:34:15;30.30;45.20
9116;DHT22;4593;53.652;10.168;2023-06-22T14:36:41;30.30;44.40
9116;DHT22;4593;53.652;10.168;2023-06-22T14:39:08;30.10;44.60
9116;DHT22;4593;53.652;10.168;2023-06-22T14:41:34;29.60;45.40
9116;DHT22;4593;53.652;10.168;2023-06-22T14:44:00;29.50;45.70
9116;DHT22;4593;53.652;10.168;2023-06-22T14:46:27;29.40;47.20
9116;DHT22;4593;53.652;10.168;2023-06-22T14:48:53;29.30;46.40
9116;DHT22;4593;53.652;10.168;2023-06-22T14:51:18;29.10;47.00
9116;DHT22;4593;53.652;10.168;2023-06-22T14:53:45;28.90;47.80
9116;DHT22;4593;53.652;10.168;2023-06-22T14:56:11;28.90;48.30
9116;DHT22;4593;53.652;10.168;2023-06-22T14:58:40;29.00;47.70
9116;DHT22;4593;53.652;10.168;2023-06-22T15:01:06;29.00;48.30
9116;DHT22;4593;53.652;10.168;2023-06-22T15:03:34;29.00;50.60
9116;DHT22;4593;53.652;10.168;2023-06-22T15:06:01;29.00;50.00
9116;DHT22;4593;53.652;10.168;2023-06-22T15:08:28;28.50;51.60
9116;DHT22;4593;53.652;10.168;2023-06-22T15:10:54;28.40;52.90
9116;DHT22;4593;53.652;10.168;2023-06-22T15:13:20;28.30;54.30
9116;DHT22;4593;53.652;10.168;2023-06-22T15:15:47;28.20;53.70
9116;DHT22;4593;53.652;10.168;2023-06-22T15:18:14;28.10;53.80
9116;DHT22;4593;53.652;10.168;2023-06-22T15:20:41;27.80;53.20
9116;DHT22;4593;53.652;10.168;2023-06-22T15:23:10;27.80;56.30
9116;DHT22;4593;53.652;10.168;2023-06-22T15:25:36;27.80;55.20
9116;DHT22;4593;53.652;10.168;2023-06-22T15:28:02;27.80;53.80
9116;DHT22;4593;53.652;10.168;2023-06-22T15:30:28;27.80;54.10
9116;DHT22;4593;53.652;10.168;2023-06-22T15:32:54;27.70;53.10
9116;DHT22;4593;53.652;10.168;2023-06-22T15:35:20;27.70;53.00
9116;DHT22;4593;53.652;10.168;2023-06-22T15:37:46;27.40;52.90
9116;DHT22;4593;53.652;10.168;2023-06-22T15:40:12;27.30;52.90
9116;DHT22;4593;53.652;10.168;2023-06-22T15:42:37;27.20;53.90
9116;DHT22;4593;53.652;10.168;2023-06-22T15:45:04;27.10;53.90
9116;DHT22;4593;53.652;10.168;2023-06-22T15:47:30;26.80;53.30